sensor_id;sensor_type;location;lat;lon;timestamp;pressure;altitude;pressure_sealevel;temperature;humidity
73671;BME280;61968;48.178;11.566;2022-08-25T00:01:53;95926.41;;;20.47;39.58
73671;BME280;61968;48.178;11.566;2022-08-25T00:04:22;95925.38;;;20.43;39.67
73671;BME280;61968;48.178;11.566;2022-08-25T00:06:49;95927.84;;;20.39;39.57
73671;BME280;61968;48.178;11.566;2022-08-25T00:09:20;95923.63;;;20.33;39.94
73671;BME280;61968;48.178;11.566;2022-08-25T00:11:48;95920.44;;;20.31;39.84
73671;BME280;61968;48.178;11.566;2022-08-25T00:14:18;95921.53;;;20.30;39.90
73671;BME280;61968;48.178;11.566;2022-08-25T00:16:45;95912.16;;;20.27;40.04
73671;BME280;61968;48.178;11.566;2022-08-25T00:19:14;95908.44;;;20.23;40.08
73671;BME280;61968;48.178;11.566;2022-08-25T00:21:43;95913.00;;;20.23;40.03
73671;BME280;61968;48.178;11.566;2022-08-25T00:24:11;95914.38;;;20.20;39.95
73671;BME280;61968;48.178;11.566;2022-08-25T00:26:39;95913.09;;;20.17;40.01
73671;BME280;61968;48.178;11.566;2022-08-25T00:29:07;95909.59;;;20.17;40.48
73671;BME280;61968;48.178;11.566;2022-08-25T00:31:34;95914.97;;;20.17;40.15
73671;BME280;61968;48.178;11.566;2022-08-25T00:34:01;95908.31;;;20.14;40.25
73671;BME280;61968;48.178;11.566;2022-08-25T00:36:27;95908.03;;;20.11;40.25
73671;BME280;61968;48.178;11.566;2022-08-25T00:38:55;95908.09;;;20.06;40.43
73671;BME280;61968;48.178;11.566;2022-08-25T00:41:23;95911.28;;;20.08;40.44
73671;BME280;61968;48.178;11.566;2022-08-25T00:43:52;95908.59;;;20.08;40.49
73671;BME280;61968;48.178;11.566;2022-08-25T00:46:22;95907.59;;;20.04;40.55
73671;BME280;61968;48.178;11.566;2022-08-25T00:48:54;95902.25;;;19.99;40.56
73671;BME280;61968;48.178;11.566;2022-08-25T00:51:26;95902.84;;;19.95;40.77
73671;BME280;61968;48.178;11.566;2022-08-25T00:53:57;95898.56;;;19.94;40.55
73671;BME280;61968;48.178;11.566;2022-08-25T00:56:24;95894.28;;;19.93;40.86
73671;BME280;61968;48.178;11.566;2022-08-25T00:58:51;95894.56;;;19.92;40.77
73671;BME280;61968;48.178;11.566;2022-08-25T01:01:17;95890.28;;;19.91;40.81
73671;BME280;61968;48.178;11.566;2022-08-25T01:03:44;95892.47;;;19.89;40.78
73671;BME280;61968;48.178;11.566;2022-08-25T01:06:11;95880.50;;;19.81;40.99
73671;BME280;61968;48.178;11.566;2022-08-25T01:08:38;95885.38;;;19.74;41.17
73671;BME280;61968;48.178;11.566;2022-08-25T01:11:08;95887.00;;;19.75;40.86
73671;BME280;61968;48.178;11.566;2022-08-25T01:13:38;95889.69;;;19.75;41.16
73671;BME280;61968;48.178;11.566;2022-08-25T01:16:05;95890.75;;;19.74;41.10
73671;BME280;61968;48.178;11.566;2022-08-25T01:18:42;95885.44;;;19.69;41.35
73671;BME280;61968;48.178;11.566;2022-08-25T01:21:11;95885.72;;;19.67;41.17
73671;BME280;61968;48.178;11.566;2022-08-25T01:23:37;95883.09;;;19.62;41.40
73671;BME280;61968;48.178;11.566;2022-08-25T01:26:07;95880.94;;;19.64;41.53
73671;BME280;61968;48.178;11.566;2022-08-25T01:28:35;95887.09;;;19.65;41.24
73671;BME280;61968;48.178;11.566;2022-08-25T01:31:01;95888.75;;;19.61;41.53
73671;BME280;61968;48.178;11.566;2022-08-25T01:33:28;95882.06;;;19.58;41.44
73671;BME280;61968;48.178;11.566;2022-08-25T01:35:54;95879.13;;;19.60;41.59
73671;BME280;61968;48.178;11.566;2022-08-25T01:38:22;95886.63;;;19.58;41.70
73671;BME280;61968;48.178;11.566;2022-08-25T01:40:49;95886.13;;;19.56;41.69
73671;BME280;61968;48.178;11.566;2022-08-25T01:43:24;95883.47;;;19.50;41.84
73671;BME280;61968;48.178;11.566;2022-08-25T01:45:51;95892.59;;;19.49;41.80
73671;BME280;61968;48.178;11.566;2022-08-25T01:48:18;95885.09;;;19.46;41.90
73671;BME280;61968;48.178;11.566;2022-08-25T01:50:44;95881.91;;;19.44;41.95
73671;BME280;61968;48.178;11.566;2022-08-25T01:53:12;95880.88;;;19.40;41.93
73671;BME280;61968;48.178;11.566;2022-08-25T01:55:44;95883.28;;;19.42;42.06
73671;BME280;61968;48.178;11.566;2022-08-25T01:58:28;95880.88;;;19.40;41.84
73671;BME280;61968;48.178;11.566;2022-08-25T02:00:57;95877.16;;;19.36;42.14
73671;BME280;61968;48.178;11.566;2022-08-25T02:03:26;95882.22;;;19.38;42.15
73671;BME280;61968;48.178;11.566;2022-08-25T02:05:54;95880.91;;;19.35;41.81
73671;BME280;61968;48.178;11.566;2022-08-25T02:08:21;95874.97;;;19.38;42.08
73671;BME280;61968;48.178;11.566;2022-08-25T02:10:49;95883.59;;;19.35;41.98
73671;BME280;61968;48.178;11.566;2022-08-25T02:13:16;95882.78;;;19.35;42.16
73671;BME280;61968;48.178;11.566;2022-08-25T02:15:45;95880.97;;;19.30;42.47
73671;BME280;61968;48.178;11.566;2022-08-25T02:18:13;95883.13;;;19.28;42.41
73671;BME280;61968;48.178;11.566;2022-08-25T02:20:39;95879.66;;;19.27;42.15
73671;BME280;61968;48.178;11.566;2022-08-25T02:23:06;95885.28;;;19.26;42.42
73671;BME280;61968;48.178;11.566;2022-08-25T02:25:33;95878.63;;;19.23;42.37
73671;BME280;61968;48.178;11.566;2022-08-25T02:28:01;95878.38;;;19.20;42.39
73671;BME280;61968;48.178;11.566;2022-08-25T02:30:27;95869.88;;;19.13;42.41
73671;BME280;61968;48.178;11.566;2022-08-25T02:32:54;95879.50;;;19.14;42.62
73671;BME280;61968;48.178;11.566;2022-08-25T02:35:21;95866.09;;;19.14;42.51
73671;BME280;61968;48.178;11.566;2022-08-25T02:37:49;95876.03;;;19.13;42.34
73671;BME280;61968;48.178;11.566;2022-08-25T02:40:16;95874.72;;;19.11;42.61
73671;BME280;61968;48.178;11.566;2022-08-25T02:42:43;95878.47;;;19.10;42.44
73671;BME280;61968;48.178;11.566;2022-08-25T02:45:11;95877.16;;;19.07;42.56
73671;BME280;61968;48.178;11.566;2022-08-25T02:47:38;95865.97;;;19.00;42.65
73671;BME280;61968;48.178;11.566;2022-08-25T02:50:06;95869.41;;;19.06;42.68
73671;BME280;61968;48.178;11.566;2022-08-25T02:52:33;95868.09;;;19.03;42.94
73671;BME280;61968;48.178;11.566;2022-08-25T02:55:00;95870.25;;;19.01;42.82
73671;BME280;61968;48.178;11.566;2022-08-25T02:57:29;95860.31;;;19.01;42.55
73671;BME280;61968;48.178;11.566;2022-08-25T02:59:55;95860.03;;;19.03;42.66
73671;BME280;61968;48.178;11.566;2022-08-25T03:02:25;95860.88;;;18.98;42.78
73671;BME280;61968;48.178;11.566;2022-08-25T03:04:52;95854.47;;;18.99;42.70
73671;BME280;61968;48.178;11.566;2022-08-25T03:07:19;95856.06;;;18.95;42.97
73671;BME280;61968;48.178;11.566;2022-08-25T03:09:46;95858.19;;;18.98;42.78
73671;BME280;61968;48.178;11.566;2022-08-25T03:12:13;95861.16;;;18.97;43.03
73671;BME280;61968;48.178;11.566;2022-08-25T03:14:39;95857.16;;;18.94;43.05
73671;BME280;61968;48.178;11.566;2022-08-25T03:17:07;95859.31;;;18.92;42.99
73671;BME280;61968;48.178;11.566;2022-08-25T03:19:35;95856.94;;;18.91;42.84
73671;BME280;61968;48.178;11.566;2022-08-25T03:22:01;95860.19;;;18.88;42.94
73671;BME280;61968;48.178;11.566;2022-08-25T03:24:28;95857.50;;;18.88;42.83
73671;BME280;61968;48.178;11.566;2022-08-25T03:26:54;95854.06;;;18.82;42.92
73671;BME280;61968;48.178;11.566;2022-08-25T03:29:21;95861.00;;;18.78;43.03
73671;BME280;61968;48.178;11.566;2022-08-25T03:31:48;95865.31;;;18.79;43.21
73671;BME280;61968;48.178;11.566;2022-08-25T03:34:15;95858.31;;;18.78;43.09
73671;BME280;61968;48.178;11.566;2022-08-25T03:36:45;95855.16;;;18.76;43.21
73671;BME280;61968;48.178;11.566;2022-08-25T03:39:11;95851.94;;;18.74;43.18
73671;BME280;61968;48.178;11.566;2022-08-25T03:41:39;95849.81;;;18.71;43.03
73671;BME280;61968;48.178;11.566;2022-08-25T03:44:06;95850.91;;;18.70;43.08
73671;BME280;61968;48.178;11.566;2022-08-25T03:46:37;95847.72;;;18.63;43.29
73671;BME280;61968;48.178;11.566;2022-08-25T03:49:05;95853.06;;;18.63;43.39
73671;BME280;61968;48.178;11.566;2022-08-25T03:51:34;95848.28;;;18.59;43.61
73671;BME280;61968;48.178;11.566;2022-08-25T03:54:03;95845.03;;;18.63;43.37
73671;BME280;61968;48.178;11.566;2022-08-25T03:56:30;95846.16;;;18.56;43.54
73671;BME280;61968;48.178;11.566;2022-08-25T03:58:57;95847.53;;;18.54;43.82
73671;BME280;61968;48.178;11.566;2022-08-25T04:01:24;95843.53;;;18.51;43.76
73671;BME280;61968;48.178;11.566;2022-08-25T04:03:50;95840.34;;;18.49;43.53
73671;BME280;61968;48.178;11.566;2022-08-25T04:06:18;95838.75;;;18.48;43.64
73671;BME280;61968;48.178;11.566;2022-08-25T04:08:45;95842.47;;;18.47;43.70
73671;BME280;61968;48.178;11.566;2022-08-25T04:11:15;95843.84;;;18.45;44.04
73671;BME280;61968;48.178;11.566;2022-08-25T04:13:42;95844.66;;;18.45;43.67
73671;BME280;61968;48.178;11.566;2022-08-25T04:16:11;95850.00;;;18.45;43.63
73671;BME280;61968;48.178;11.566;2022-08-25T04:18:38;95851.56;;;18.51;43.62
73671;BME280;61968;48.178;11.566;2022-08-25T04:21:07;95849.44;;;18.48;43.61
73671;BME280;61968;48.178;11.566;2022-08-25T04:23:34;95849.47;;;18.43;43.66
73671;BME280;61968;48.178;11.566;2022-08-25T04:26:01;95848.38;;;18.44;43.78
73671;BME280;61968;48.178;11.566;2022-08-25T04:28:29;95848.38;;;18.44;43.88
73671;BME280;61968;48.178;11.566;2022-08-25T04:30:55;95851.63;;;18.41;43.97
73671;BME280;61968;48.178;11.566;2022-08-25T04:33:22;95851.34;;;18.43;43.94
73671;BME280;61968;48.178;11.566;2022-08-25T04:35:48;95859.09;;;18.44;43.75
73671;BME280;61968;48.178;11.566;2022-08-25T04:38:15;95857.78;;;18.42;43.93
73671;BME280;61968;48.178;11.566;2022-08-25T04:40:42;95848.16;;;18.41;43.70
73671;BME280;61968;48.178;11.566;2022-08-25T04:43:08;95856.47;;;18.39;44.09
73671;BME280;61968;48.178;11.566;2022-08-25T04:45:37;95858.31;;;18.39;43.91
73671;BME280;61968;48.178;11.566;2022-08-25T04:48:04;95853.25;;;18.37;44.11
73671;BME280;61968;48.178;11.566;2022-08-25T04:50:31;95846.31;;;18.36;43.99
73671;BME280;61968;48.178;11.566;2022-08-25T04:52:57;95850.59;;;18.37;43.78
73671;BME280;61968;48.178;11.566;2022-08-25T04:55:24;95847.34;;;18.40;44.25
73671;BME280;61968;48.178;11.566;2022-08-25T04:57:50;95851.66;;;18.36;44.36
73671;BME280;61968;48.178;11.566;2022-08-25T05:00:17;95846.03;;;18.38;44.45
73671;BME280;61968;48.178;11.566;2022-08-25T05:02:45;95846.56;;;18.40;44.16
73671;BME280;61968;48.178;11.566;2022-08-25T05:05:11;95842.78;;;18.41;43.89
73671;BME280;61968;48.178;11.566;2022-08-25T05:07:38;95839.03;;;18.42;44.10
73671;BME280;61968;48.178;11.566;2022-08-25T05:10:05;95848.47;;;18.34;44.80
73671;BME280;61968;48.178;11.566;2022-08-25T05:12:32;95840.44;;;18.34;44.67
73671;BME280;61968;48.178;11.566;2022-08-25T05:14:58;95844.16;;;18.38;44.35
73671;BME280;61968;48.178;11.566;2022-08-25T05:17:46;95849.50;;;18.38;44.31
73671;BME280;61968;48.178;11.566;2022-08-25T05:20:12;95846.56;;;18.40;44.53
73671;BME280;61968;48.178;11.566;2022-08-25T05:22:39;95841.47;;;18.38;44.40
73671;BME280;61968;48.178;11.566;2022-08-25T05:25:09;95848.94;;;18.41;44.32
73671;BME280;61968;48.178;11.566;2022-08-25T05:27:35;95843.03;;;18.44;44.13
73671;BME280;61968;48.178;11.566;2022-08-25T05:30:03;95844.34;;;18.47;44.42
73671;BME280;61968;48.178;11.566;2022-08-25T05:32:29;95839.78;;;18.52;44.08
73671;BME280;61968;48.178;11.566;2022-08-25T05:34:57;95846.44;;;18.60;44.09
73671;BME280;61968;48.178;11.566;2022-08-25T05:37:24;95838.66;;;18.58;44.27
73671;BME280;61968;48.178;11.566;2022-08-25T05:39:50;95841.06;;;18.60;44.16
73671;BME280;61968;48.178;11.566;2022-08-25T05:42:17;95833.53;;;18.62;44.12
73671;BME280;61968;48.178;11.566;2022-08-25T05:44:44;95834.34;;;18.63;44.26
73671;BME280;61968;48.178;11.566;2022-08-25T05:47:10;95835.66;;;18.65;44.10
73671;BME280;61968;48.178;11.566;2022-08-25T05:49:36;95842.13;;;18.59;44.30
73671;BME280;61968;48.178;11.566;2022-08-25T05:52:04;95838.66;;;18.58;44.49
73671;BME280;61968;48.178;11.566;2022-08-25T05:54:31;95845.59;;;18.59;44.46
73671;BME280;61968;48.178;11.566;2022-08-25T05:56:57;95845.59;;;18.59;44.25
73671;BME280;61968;48.178;11.566;2022-08-25T05:59:24;95843.44;;;18.67;44.35
73671;BME280;61968;48.178;11.566;2022-08-25T06:01:50;95849.06;;;18.65;44.02
73671;BME280;61968;48.178;11.566;2022-08-25T06:04:43;95843.22;;;18.58;44.67
73671;BME280;61968;48.178;11.566;2022-08-25T06:07:11;95837.56;;;18.59;44.73
73671;BME280;61968;48.178;11.566;2022-08-25T06:09:37;95835.91;;;18.69;44.72
73671;BME280;61968;48.178;11.566;2022-08-25T06:12:05;95836.50;;;18.61;44.97
73671;BME280;61968;48.178;11.566;2022-08-25T06:14:32;95828.75;;;18.59;45.01
73671;BME280;61968;48.178;11.566;2022-08-25T06:16:59;95826.28;;;18.68;44.52
73671;BME280;61968;48.178;11.566;2022-08-25T06:19:26;95825.16;;;18.74;44.41
73671;BME280;61968;48.178;11.566;2022-08-25T06:21:53;95816.59;;;18.72;44.57
73671;BME280;61968;48.178;11.566;2022-08-25T06:24:22;95817.69;;;18.71;44.93
73671;BME280;61968;48.178;11.566;2022-08-25T06:26:49;95816.84;;;18.75;45.02
73671;BME280;61968;48.178;11.566;2022-08-25T06:29:16;95821.38;;;18.75;44.71
73671;BME280;61968;48.178;11.566;2022-08-25T06:31:43;95825.66;;;18.81;44.65
73671;BME280;61968;48.178;11.566;2022-08-25T06:34:10;95827.72;;;18.89;44.15
73671;BME280;61968;48.178;11.566;2022-08-25T06:36:37;95820.97;;;18.97;43.96
73671;BME280;61968;48.178;11.566;2022-08-25T06:39:04;95820.97;;;18.97;43.96
73671;BME280;61968;48.178;11.566;2022-08-25T06:41:32;95822.88;;;18.96;44.56
73671;BME280;61968;48.178;11.566;2022-08-25T06:43:59;95827.66;;;18.99;44.43
73671;BME280;61968;48.178;11.566;2022-08-25T06:46:26;95831.94;;;19.00;44.32
73671;BME280;61968;48.178;11.566;2022-08-25T06:48:54;95827.09;;;19.02;44.28
73671;BME280;61968;48.178;11.566;2022-08-25T06:51:22;95823.88;;;19.00;44.15
73671;BME280;61968;48.178;11.566;2022-08-25T06:53:50;95839.75;;;18.97;44.39
73671;BME280;61968;48.178;11.566;2022-08-25T06:56:18;95836.50;;;19.00;44.43
73671;BME280;61968;48.178;11.566;2022-08-25T06:58:47;95827.56;;;19.10;44.08
73671;BME280;61968;48.178;11.566;2022-08-25T07:01:15;95839.00;;;19.20;43.95
73671;BME280;61968;48.178;11.566;2022-08-25T07:03:42;95839.38;;;19.09;43.98
73671;BME280;61968;48.178;11.566;2022-08-25T07:06:09;95833.16;;;19.13;44.46
73671;BME280;61968;48.178;11.566;2022-08-25T07:08:35;95827.00;;;19.13;43.97
73671;BME280;61968;48.178;11.566;2022-08-25T07:11:04;95834.19;;;19.17;44.16
73671;BME280;61968;48.178;11.566;2022-08-25T07:13:30;95830.38;;;19.23;43.75
73671;BME280;61968;48.178;11.566;2022-08-25T07:15:58;95837.00;;;19.31;43.70
73671;BME280;61968;48.178;11.566;2022-08-25T07:18:25;95830.78;;;19.36;43.64
73671;BME280;61968;48.178;11.566;2022-08-25T07:20:52;95832.38;;;19.37;43.49
73671;BME280;61968;48.178;11.566;2022-08-25T07:23:19;95841.53;;;19.36;43.85
73671;BME280;61968;48.178;11.566;2022-08-25T07:25:46;95840.38;;;19.42;43.78
73671;BME280;61968;48.178;11.566;2022-08-25T07:28:13;95835.50;;;19.49;43.53
73671;BME280;61968;48.178;11.566;2022-08-25T07:30:40;95825.00;;;19.53;43.34
73671;BME280;61968;48.178;11.566;2022-08-25T07:33:08;95828.72;;;19.57;43.05
73671;BME280;61968;48.178;11.566;2022-08-25T07:35:35;95838.22;;;19.68;43.34
73671;BME280;61968;48.178;11.566;2022-08-25T07:38:03;95838.00;;;19.64;43.38
73671;BME280;61968;48.178;11.566;2022-08-25T07:40:31;95832.38;;;19.66;43.36
73671;BME280;61968;48.178;11.566;2022-08-25T07:43:00;95834.41;;;19.74;43.71
73671;BME280;61968;48.178;11.566;2022-08-25T07:45:29;95836.06;;;19.70;43.61
73671;BME280;61968;48.178;11.566;2022-08-25T07:47:57;95834.94;;;19.76;43.90
73671;BME280;61968;48.178;11.566;2022-08-25T07:50:26;95835.09;;;19.85;43.23
73671;BME280;61968;48.178;11.566;2022-08-25T07:52:54;95826.69;;;19.91;42.83
73671;BME280;61968;48.178;11.566;2022-08-25T07:55:21;95826.75;;;19.86;43.28
73671;BME280;61968;48.178;11.566;2022-08-25T07:57:47;95831.38;;;19.81;43.46
73671;BME280;61968;48.178;11.566;2022-08-25T08:00:15;95833.66;;;19.92;43.19
73671;BME280;61968;48.178;11.566;2022-08-25T08:02:42;95828.75;;;20.00;43.05
73671;BME280;61968;48.178;11.566;2022-08-25T08:05:10;95844.19;;;20.08;42.91
73671;BME280;61968;48.178;11.566;2022-08-25T08:07:39;95841.28;;;20.04;43.12
73671;BME280;61968;48.178;11.566;2022-08-25T08:10:07;95843.47;;;20.02;43.32
73671;BME280;61968;48.178;11.566;2022-08-25T08:12:34;95848.31;;;20.00;43.08
73671;BME280;61968;48.178;11.566;2022-08-25T08:15:02;95838.75;;;20.13;43.12
73671;BME280;61968;48.178;11.566;2022-08-25T08:17:28;95840.31;;;20.19;42.87
73671;BME280;61968;48.178;11.566;2022-08-25T08:19:56;95846.78;;;20.18;43.18
73671;BME280;61968;48.178;11.566;2022-08-25T08:22:23;95839.78;;;20.17;43.32
73671;BME280;61968;48.178;11.566;2022-08-25T08:24:50;95838.34;;;20.25;43.23
73671;BME280;61968;48.178;11.566;2022-08-25T08:27:17;95836.69;;;20.29;42.83
73671;BME280;61968;48.178;11.566;2022-08-25T08:29:43;95839.81;;;20.36;42.71
73671;BME280;61968;48.178;11.566;2022-08-25T08:32:10;95831.66;;;20.41;42.79
73671;BME280;61968;48.178;11.566;2022-08-25T08:34:38;95835.19;;;20.42;42.82
73671;BME280;61968;48.178;11.566;2022-08-25T08:37:06;95831.22;;;20.53;42.79
73671;BME280;61968;48.178;11.566;2022-08-25T08:39:33;95833.28;;;20.61;42.58
73671;BME280;61968;48.178;11.566;2022-08-25T08:42:16;95834.78;;;20.67;42.14
73671;BME280;61968;48.178;11.566;2022-08-25T08:45:05;95829.34;;;20.72;41.97
73671;BME280;61968;48.178;11.566;2022-08-25T08:47:46;95827.44;;;20.73;42.61
73671;BME280;61968;48.178;11.566;2022-08-25T08:50:23;95825.72;;;20.82;42.00
73671;BME280;61968;48.178;11.566;2022-08-25T08:52:55;95818.44;;;20.82;41.93
73671;BME280;61968;48.178;11.566;2022-08-25T08:55:27;95811.50;;;20.81;42.10
73671;BME280;61968;48.178;11.566;2022-08-25T08:57:58;95815.47;;;20.84;42.23
73671;BME280;61968;48.178;11.566;2022-08-25T09:00:26;95817.66;;;20.82;42.44
73671;BME280;61968;48.178;11.566;2022-08-25T09:02:57;95808.69;;;20.86;41.90
73671;BME280;61968;48.178;11.566;2022-08-25T09:05:31;95798.38;;;20.94;41.97
73671;BME280;61968;48.178;11.566;2022-08-25T09:08:04;95803.75;;;20.94;42.27
73671;BME280;61968;48.178;11.566;2022-08-25T09:10:39;95803.56;;;21.04;41.98
73671;BME280;61968;48.178;11.566;2022-08-25T09:13:18;95799.09;;;21.13;41.40
73671;BME280;61968;48.178;11.566;2022-08-25T09:15:52;95797.19;;;21.14;41.53
73671;BME280;61968;48.178;11.566;2022-08-25T09:18:45;95791.34;;;21.12;41.47
73671;BME280;61968;48.178;11.566;2022-08-25T09:21:21;95799.22;;;21.08;42.16
73671;BME280;61968;48.178;11.566;2022-08-25T09:24:02;95807.16;;;21.13;42.28
73671;BME280;61968;48.178;11.566;2022-08-25T09:26:36;95804.78;;;21.25;42.04
73671;BME280;61968;48.178;11.566;2022-08-25T09:29:08;95806.41;;;21.26;41.93
73671;BME280;61968;48.178;11.566;2022-08-25T09:31:38;95803.59;;;21.31;41.92
73671;BME280;61968;48.178;11.566;2022-08-25T09:34:06;95802.13;;;21.39;41.85
73671;BME280;61968;48.178;11.566;2022-08-25T09:36:36;95800.91;;;21.31;41.97
73671;BME280;61968;48.178;11.566;2022-08-25T09:39:03;95798.56;;;21.44;42.35
73671;BME280;61968;48.178;11.566;2022-08-25T09:41:42;95796.09;;;21.47;42.21
73671;BME280;61968;48.178;11.566;2022-08-25T09:44:22;95796.28;;;21.51;41.58
73671;BME280;61968;48.178;11.566;2022-08-25T09:47:13;95789.59;;;21.62;42.48
73671;BME280;61968;48.178;11.566;2022-08-25T09:49:42;95788.50;;;21.63;42.09
73671;BME280;61968;48.178;11.566;2022-08-25T09:52:32;95786.91;;;21.62;41.83
73671;BME280;61968;48.178;11.566;2022-08-25T09:55:01;95787.03;;;21.57;42.38
73671;BME280;61968;48.178;11.566;2022-08-25T09:57:44;95783.81;;;21.69;41.83
73671;BME280;61968;48.178;11.566;2022-08-25T10:00:17;95783.81;;;21.69;41.90
73671;BME280;61968;48.178;11.566;2022-08-25T10:03:01;95779.13;;;21.74;42.17
73671;BME280;61968;48.178;11.566;2022-08-25T10:05:28;95776.50;;;21.83;41.05
73671;BME280;61968;48.178;11.566;2022-08-25T10:08:00;95769.13;;;21.89;41.54
73671;BME280;61968;48.178;11.566;2022-08-25T10:10:30;95770.94;;;21.93;42.05
73671;BME280;61968;48.178;11.566;2022-08-25T10:12:57;95770.94;;;21.93;42.01
73671;BME280;61968;48.178;11.566;2022-08-25T10:15:30;95763.53;;;21.99;41.34
73671;BME280;61968;48.178;11.566;2022-08-25T10:18:19;95771.31;;;22.00;41.46
73671;BME280;61968;48.178;11.566;2022-08-25T10:21:00;95764.91;;;22.10;40.91
73671;BME280;61968;48.178;11.566;2022-08-25T10:23:27;95758.03;;;22.18;41.04
73671;BME280;61968;48.178;11.566;2022-08-25T10:25:54;95758.53;;;22.20;40.39
73671;BME280;61968;48.178;11.566;2022-08-25T10:28:29;95762.13;;;22.15;40.00
73671;BME280;61968;48.178;11.566;2022-08-25T10:31:05;95756.91;;;22.19;39.84
73671;BME280;61968;48.178;11.566;2022-08-25T10:33:43;95753.78;;;22.26;40.31
73671;BME280;61968;48.178;11.566;2022-08-25T10:36:19;95754.47;;;22.31;40.40
73671;BME280;61968;48.178;11.566;2022-08-25T10:38:50;95750.28;;;22.39;39.89
73671;BME280;61968;48.178;11.566;2022-08-25T10:41:38;95745.19;;;22.37;39.98
73671;BME280;61968;48.178;11.566;2022-08-25T10:44:14;95752.53;;;22.45;40.31
73671;BME280;61968;48.178;11.566;2022-08-25T10:47:15;95741.56;;;22.42;39.41
73671;BME280;61968;48.178;11.566;2022-08-25T10:49:54;95743.66;;;22.45;39.86
73671;BME280;61968;48.178;11.566;2022-08-25T10:52:27;95744.44;;;22.45;39.75
73671;BME280;61968;48.178;11.566;2022-08-25T10:54:57;95745.59;;;22.53;38.75
73671;BME280;61968;48.178;11.566;2022-08-25T10:57:33;95742.25;;;22.48;38.12
73671;BME280;61968;48.178;11.566;2022-08-25T11:00:05;95735.72;;;22.62;38.50
73671;BME280;61968;48.178;11.566;2022-08-25T11:03:01;95736.56;;;22.72;38.64
73671;BME280;61968;48.178;11.566;2022-08-25T11:05:40;95731.75;;;22.91;38.89
73671;BME280;61968;48.178;11.566;2022-08-25T11:08:11;95731.34;;;23.06;38.61
73671;BME280;61968;48.178;11.566;2022-08-25T11:10:43;95717.09;;;23.15;38.18
73671;BME280;61968;48.178;11.566;2022-08-25T11:13:16;95731.28;;;23.20;37.75
73671;BME280;61968;48.178;11.566;2022-08-25T11:15:51;95732.13;;;23.38;38.49
73671;BME280;61968;48.178;11.566;2022-08-25T11:18:20;95727.72;;;23.51;37.78
73671;BME280;61968;48.178;11.566;2022-08-25T11:20:53;95725.47;;;23.35;37.38
73671;BME280;61968;48.178;11.566;2022-08-25T11:23:26;95726.75;;;23.55;37.44
73671;BME280;61968;48.178;11.566;2022-08-25T11:25:58;95727.56;;;23.65;38.06
73671;BME280;61968;48.178;11.566;2022-08-25T11:28:26;95719.66;;;23.68;36.91
73671;BME280;61968;48.178;11.566;2022-08-25T11:30:58;95726.03;;;23.72;38.08
73671;BME280;61968;48.178;11.566;2022-08-25T11:33:28;95721.28;;;23.78;38.01
73671;BME280;61968;48.178;11.566;2022-08-25T11:35:58;95715.25;;;23.98;37.82
73671;BME280;61968;48.178;11.566;2022-08-25T11:38:47;95715.59;;;24.06;37.55
73671;BME280;61968;48.178;11.566;2022-08-25T11:41:24;95702.09;;;24.06;37.81
73671;BME280;61968;48.178;11.566;2022-08-25T11:44:04;95702.41;;;24.13;37.70
73671;BME280;61968;48.178;11.566;2022-08-25T11:46:55;95694.28;;;24.30;36.83
73671;BME280;61968;48.178;11.566;2022-08-25T11:52:50;95690.75;;;24.56;36.46
73671;BME280;61968;48.178;11.566;2022-08-25T11:55:19;95677.88;;;24.61;35.18
73671;BME280;61968;48.178;11.566;2022-08-25T11:57:49;95692.50;;;24.69;35.83
73671;BME280;61968;48.178;11.566;2022-08-25T12:00:34;95692.03;;;24.58;35.57
73671;BME280;61968;48.178;11.566;2022-08-25T12:06:18;95687.72;;;24.66;34.25
73671;BME280;61968;48.178;11.566;2022-08-25T12:08:52;95687.41;;;24.67;34.49
73671;BME280;61968;48.178;11.566;2022-08-25T12:11:43;95692.50;;;24.69;35.50
73671;BME280;61968;48.178;11.566;2022-08-25T12:14:15;95687.72;;;24.75;35.82
73671;BME280;61968;48.178;11.566;2022-08-25T12:16:44;95685.16;;;24.78;35.36
73671;BME280;61968;48.178;11.566;2022-08-25T12:19:28;95687.50;;;24.88;34.45
73671;BME280;61968;48.178;11.566;2022-08-25T12:25:00;95689.13;;;24.89;34.50
73671;BME280;61968;48.178;11.566;2022-08-25T12:27:35;95692.50;;;24.69;34.54
73671;BME280;61968;48.178;11.566;2022-08-25T12:30:13;95693.75;;;24.80;35.39
73671;BME280;61968;48.178;11.566;2022-08-25T12:33:04;95697.06;;;24.77;34.64
73671;BME280;61968;48.178;11.566;2022-08-25T12:35:37;95690.88;;;24.77;35.16
73671;BME280;61968;48.178;11.566;2022-08-25T12:38:09;95694.84;;;24.79;34.86
73671;BME280;61968;48.178;11.566;2022-08-25T12:40:52;95685.28;;;24.82;35.60
73671;BME280;61968;48.178;11.566;2022-08-25T12:43:24;95688.09;;;25.03;34.61
73671;BME280;61968;48.178;11.566;2022-08-25T12:45:53;95688.28;;;24.98;34.33
73671;BME280;61968;48.178;11.566;2022-08-25T12:51:47;95684.81;;;24.80;34.61
73671;BME280;61968;48.178;11.566;2022-08-25T12:54:21;95681.63;;;24.86;34.77
73671;BME280;61968;48.178;11.566;2022-08-25T12:56:52;95681.00;;;24.89;34.77
73671;BME280;61968;48.178;11.566;2022-08-25T12:59:22;95676.63;;;25.06;34.79
73671;BME280;61968;48.178;11.566;2022-08-25T13:02:14;95682.16;;;25.18;34.02
73671;BME280;61968;48.178;11.566;2022-08-25T13:05:02;95678.09;;;25.33;33.92
73671;BME280;61968;48.178;11.566;2022-08-25T13:07:42;95677.41;;;25.45;33.77
73671;BME280;61968;48.178;11.566;2022-08-25T13:10:40;95672.56;;;25.59;33.75
73671;BME280;61968;48.178;11.566;2022-08-25T13:13:11;95669.47;;;25.69;32.62
73671;BME280;61968;48.178;11.566;2022-08-25T13:15:44;95662.38;;;25.77;33.13
73671;BME280;61968;48.178;11.566;2022-08-25T13:18:16;95666.41;;;25.92;33.05
73671;BME280;61968;48.178;11.566;2022-08-25T13:20:45;95661.94;;;25.96;32.48